Time;durP1;ratioP1;P1;durP2;ratioP2;P2;SDS_P1;SDS_P2;PMS_P1;PMS_P2;Temp;Humidity;BMP_temperature;BMP_pressure;BME280_temperature;BME280_humidity;BME280_pressure;Samples;Min_cycle;Max_cycle;Signal;HPM_P1;HPM_P2
2022/11/20 00:01:26;;;;;;;49.27;24.45;;;;;;;-1.45;59.41;98819.72;1662940;86;20996;-53
2022/11/20 00:03:54;;;;;;;51.42;24.65;;;;;;;-1.64;59.27;98819.95;1663099;86;21012;-51
2022/11/20 00:06:21;;;;;;;54.75;25.90;;;;;;;-1.58;59.23;98819.05;1663153;86;21014;-52
2022/11/20 00:08:47;;;;;;;51.48;26.15;;;;;;;-1.47;59.57;98822.77;1663230;85;21027;-41
2022/11/20 00:11:17;;;;;;;45.63;25.05;;;;;;;-1.36;59.50;98819.59;1663101;86;21007;-52
2022/11/20 00:13:45;;;;;;;49.00;25.37;;;;;;;-1.45;59.31;98822.30;1663096;86;21003;-47
2022/11/20 00:16:13;;;;;;;52.35;26.97;;;;;;;-1.34;59.10;98821.70;1663155;86;21465;-48
2022/11/20 00:18:39;;;;;;;52.93;25.32;;;;;;;-1.34;58.96;98815.70;1663156;86;20984;-51
2022/11/20 00:21:10;;;;;;;47.35;25.25;;;;;;;-1.41;59.22;98817.51;1663306;85;21055;-47
2022/11/20 00:23:36;;;;;;;52.50;25.92;;;;;;;-1.38;59.20;98812.31;1656251;86;21022;-50
2022/11/20 00:26:07;;;;;;;49.35;25.70;;;;;;;-1.31;59.46;98807.89;1663196;85;21577;-50
2022/11/20 00:28:33;;;;;;;50.73;25.52;;;;;;;-1.27;59.34;98809.12;1654888;85;21015;-46
2022/11/20 00:31:13;;;;;;;51.42;25.50;;;;;;;-1.20;59.34;98805.58;1663132;86;21403;-49
2022/11/20 00:33:40;;;;;;;48.80;25.45;;;;;;;-1.19;59.11;98808.56;1656289;86;20988;-52
2022/11/20 00:36:10;;;;;;;54.73;26.57;;;;;;;-1.23;59.06;98807.36;1663373;86;21059;-45
2022/11/20 00:38:36;;;;;;;52.70;26.50;;;;;;;-1.30;59.03;98813.03;1645344;86;21542;-46
2022/11/20 00:41:06;;;;;;;50.50;24.98;;;;;;;-1.29;59.28;98804.44;1642927;87;21465;-45
2022/11/20 00:43:32;;;;;;;53.13;26.17;;;;;;;-1.20;59.32;98801.71;1643955;87;21446;-44
2022/11/20 00:46:08;;;;;;;54.83;26.45;;;;;;;-1.21;58.81;98801.28;1643935;86;20998;-50
2022/11/20 00:48:34;;;;;;;56.37;27.00;;;;;;;-1.13;58.93;98805.02;1643958;86;21046;-48
2022/11/20 00:51:00;;;;;;;57.15;27.82;;;;;;;-1.13;58.83;98796.44;1643945;87;21551;-51
2022/11/20 00:53:27;;;;;;;61.42;27.75;;;;;;;-1.20;59.07;98801.71;1643852;86;21548;-47
2022/11/20 00:55:59;;;;;;;53.47;27.40;;;;;;;-1.19;58.77;98799.53;1644181;87;21014;-47
2022/11/20 00:58:31;;;;;;;57.17;28.42;;;;;;;-1.31;59.02;98802.32;1642734;87;20995;-55
2022/11/20 01:01:06;;;;;;;55.78;27.93;;;;;;;-1.23;59.12;98799.62;1643885;87;21042;-42
2022/11/20 01:03:35;;;;;;;59.73;29.40;;;;;;;-1.32;59.12;98810.92;1643861;86;21469;-49
2022/11/20 01:06:09;;;;;;;60.52;29.35;;;;;;;-1.28;59.16;98811.73;1642909;87;20995;-51
2022/11/20 01:08:36;;;;;;;59.42;29.10;;;;;;;-1.20;59.31;98812.03;1642787;86;21019;-55
2022/11/20 01:11:08;;;;;;;50.20;24.72;;;;;;;-1.17;59.13;98804.22;1673076;85;21035;-50
2022/11/20 01:13:37;;;;;;;64.22;31.20;;;;;;;-1.24;58.88;98805.64;1685158;85;21007;-43
2022/11/20 01:16:31;;;;;;;61.92;29.15;;;;;;;-1.33;58.98;98804.48;1685224;85;21039;-46
2022/11/20 01:19:00;;;;;;;63.33;29.35;;;;;;;-1.30;59.18;98805.74;1685172;85;21008;-50
2022/11/20 01:21:31;;;;;;;58.78;29.72;;;;;;;-1.29;59.36;98805.73;1685185;85;20988;-51
2022/11/20 01:23:58;;;;;;;57.25;29.10;;;;;;;-1.26;59.21;98797.92;1685127;85;20984;-50
2022/11/20 01:26:29;;;;;;;56.75;28.50;;;;;;;-1.25;59.09;98799.64;1685331;85;21422;-47
2022/11/20 01:28:55;;;;;;;62.75;29.05;;;;;;;-1.24;59.07;98800.48;1685438;85;21023;-46
2022/11/20 01:31:26;;;;;;;60.63;29.77;;;;;;;-1.23;59.02;98797.04;1686095;85;21536;-53
2022/11/20 01:33:55;;;;;;;61.40;29.65;;;;;;;-1.34;59.10;98793.78;1685507;85;20972;-46
2022/11/20 01:36:25;;;;;;;58.90;30.02;;;;;;;-1.41;59.22;98784.83;1685188;85;20972;-47
2022/11/20 01:38:53;;;;;;;66.15;32.00;;;;;;;-1.36;59.23;98791.22;1689137;85;21023;-47
2022/11/20 01:44:05;;;;;;;62.90;31.52;;;;;;;-1.47;59.29;98783.64;1682475;85;21000;-51
2022/11/20 01:46:34;;;;;;;60.50;31.27;;;;;;;-1.39;59.70;98788.67;1682695;85;20988;-43
2022/11/20 01:49:23;;;;;;;59.93;30.52;;;;;;;-1.36;59.73;98790.77;1682500;85;21011;-47
2022/11/20 01:51:55;;;;;;;64.77;32.45;;;;;;;-1.47;59.83;98791.81;1682469;85;21503;-50
2022/11/20 01:54:32;;;;;;;58.98;29.37;;;;;;;-1.38;59.55;98788.66;1681753;85;20960;-51
2022/11/20 01:56:59;;;;;;;;;;;;;;;-1.43;59.57;98794.77;1685065;85;21492;-48
2022/11/20 01:59:28;;;;;;;58.98;30.88;;;;;;;-1.41;59.76;98793.01;1682608;85;20364;-44
2022/11/20 02:01:54;;;;;;;62.40;30.55;;;;;;;-1.41;59.70;98790.42;1682602;85;21492;-54
2022/11/20 02:04:21;;;;;;;61.28;30.00;;;;;;;-1.36;59.64;98793.80;1682407;85;21007;-51
2022/11/20 02:06:59;;;;;;;64.82;31.75;;;;;;;-1.40;59.60;98792.98;1682584;85;21044;-51
2022/11/20 02:09:24;;;;;;;62.48;30.48;;;;;;;-1.42;59.82;98793.45;1682531;85;21477;-47
2022/11/20 02:11:51;;;;;;;67.87;32.42;;;;;;;-1.42;59.86;98794.74;1682476;85;20995;-45
2022/11/20 02:14:17;;;;;;;67.78;32.48;;;;;;;-1.37;59.95;98795.50;1682631;85;20969;-55
2022/11/20 02:16:48;;;;;;;64.22;31.90;;;;;;;-1.38;59.96;98793.81;1682427;85;20995;-47
2022/11/20 02:19:30;;;;;;;65.03;32.73;;;;;;;-1.34;59.84;98789.91;1682447;85;20987;-46
2022/11/20 02:22:10;;;;;;;66.22;31.27;;;;;;;-1.26;59.84;98781.15;1682453;85;21059;-51
2022/11/20 02:24:36;;;;;;;67.22;31.42;;;;;;;-1.26;59.92;98777.28;1678245;85;20996;-42
2022/11/20 02:27:12;;;;;;;59.25;31.37;;;;;;;-1.27;59.84;98792.81;1682408;85;21488;-51
2022/11/20 02:29:58;;;;;;;74.37;33.65;;;;;;;-1.27;59.68;98789.78;1682606;85;21565;-49
2022/11/20 02:32:31;;;;;;;60.67;31.80;;;;;;;-1.32;59.83;98793.31;1682722;85;20968;-53
2022/11/20 02:34:57;;;;;;;65.00;33.15;;;;;;;-1.41;60.15;98787.84;1682457;85;21536;-45
2022/11/20 02:37:29;;;;;;;67.50;32.20;;;;;;;-1.41;60.15;98782.69;1682726;85;20996;-51
2022/11/20 02:39:54;;;;;;;67.00;32.48;;;;;;;-1.45;60.21;98779.75;1689227;85;21051;-52
2022/11/20 02:43:27;;;;;;;67.67;33.65;;;;;;;-1.36;60.43;98776.58;1800693;79;22950;-47
2022/11/20 02:45:53;;;;;;;66.25;32.88;;;;;;;-1.36;60.48;98778.32;1761687;80;21094;-46
2022/11/20 02:48:18;;;;;;;59.00;30.60;;;;;;;-1.33;60.32;98778.25;1761762;81;21147;-47
2022/11/20 02:50:44;;;;;;;67.70;33.38;;;;;;;-1.48;60.83;98774.63;1761701;80;21038;-49
2022/11/20 02:53:10;;;;;;;68.70;32.90;;;;;;;-1.38;60.70;98780.92;1761810;81;20988;-48
2022/11/20 02:55:36;;;;;;;63.75;32.65;;;;;;;-1.48;60.75;98774.63;1761792;80;20963;-54
2022/11/20 02:58:02;;;;;;;63.48;32.58;;;;;;;-1.44;60.89;98775.83;1761768;80;21007;-51
2022/11/20 03:00:28;;;;;;;59.35;32.10;;;;;;;-1.46;61.03;98775.00;1761798;81;20991;-50
2022/11/20 03:02:54;;;;;;;67.03;32.93;;;;;;;-1.44;60.97;98768.54;1761708;80;21523;-56
2022/11/20 03:05:20;;;;;;;71.92;34.30;;;;;;;-1.46;61.31;98771.58;1761766;81;21512;-44
2022/11/20 03:07:45;;;;;;;60.70;32.88;;;;;;;-1.43;61.33;98767.23;1761849;80;21374;-49
2022/11/20 03:10:11;;;;;;;65.97;33.08;;;;;;;-1.37;61.59;98763.70;1761923;81;20991;-47
2022/11/20 03:12:37;;;;;;;64.80;32.93;;;;;;;-1.33;61.34;98773.54;1761766;81;20987;-53
2022/11/20 03:15:04;;;;;;;65.42;34.30;;;;;;;-1.32;61.14;98769.65;1761892;81;20987;-44
2022/11/20 03:17:30;;;;;;;62.63;32.13;;;;;;;-1.30;61.34;98775.63;1761999;81;21446;-40
2022/11/20 03:19:56;;;;;;;66.07;31.77;;;;;;;-1.27;61.32;98774.75;1761699;80;21673;-48
2022/11/20 03:22:22;;;;;;;62.45;31.23;;;;;;;-1.26;61.26;98763.09;1761765;81;21933;-46
2022/11/20 03:24:48;;;;;;;68.92;33.35;;;;;;;-1.23;61.19;98773.37;1761742;81;21018;-43
2022/11/20 03:27:13;;;;;;;70.15;34.53;;;;;;;-1.32;61.23;98769.65;1761761;81;21023;-48
2022/11/20 03:29:39;;;;;;;72.17;34.23;;;;;;;-1.32;61.16;98761.07;1761717;80;20983;-49
2022/11/20 03:32:05;;;;;;;70.47;34.58;;;;;;;-1.35;61.42;98760.66;1761722;81;20991;-46
2022/11/20 03:34:31;;;;;;;66.22;32.60;;;;;;;-1.34;61.58;98762.83;1761679;80;21045;-48
2022/11/20 03:36:56;;;;;;;70.55;34.25;;;;;;;-1.39;61.59;98766.75;1761728;80;21017;-50
2022/11/20 03:39:22;;;;;;;61.68;32.80;;;;;;;-1.43;61.85;98768.97;1761737;81;20995;-50
2022/11/20 03:41:48;;;;;;;70.25;35.03;;;;;;;-1.47;61.92;98771.19;1758717;80;21028;-47
2022/11/20 03:44:14;;;;;;;69.27;33.58;;;;;;;-1.57;62.29;98768.72;1748680;81;21067;-51
2022/11/20 03:46:39;;;;;;;69.55;34.05;;;;;;;-1.62;62.65;98764.50;1748646;81;20964;-41
2022/11/20 03:49:05;;;;;;;71.95;34.10;;;;;;;-1.65;62.89;98769.28;1748607;81;20984;-49
2022/11/20 03:51:34;;;;;;;66.25;35.15;;;;;;;-1.63;63.24;98772.69;1748864;81;20991;-50
2022/11/20 03:54:04;;;;;;;69.07;33.95;;;;;;;-1.70;63.04;98776.22;1748253;81;20991;-53
2022/11/20 03:56:33;;;;;;;78.45;37.13;;;;;;;-1.69;63.28;98772.78;1748070;81;21493;-53
2022/11/20 03:58:59;;;;;;;74.87;36.38;;;;;;;-1.74;63.12;98774.57;1748201;81;20991;-45
2022/11/20 04:01:32;;;;;;;72.10;36.38;;;;;;;-1.76;63.29;98768.59;1748013;81;21457;-45
2022/11/20 04:03:58;;;;;;;72.72;34.80;;;;;;;-1.76;63.29;98768.59;1748075;82;21031;-47
2022/11/20 04:06:28;;;;;;;70.60;36.45;;;;;;;-1.83;63.69;98772.13;1748075;81;20979;-47
2022/11/20 04:08:58;;;;;;;68.83;35.35;;;;;;;-1.82;63.66;98763.50;1748155;81;21022;-53
2022/11/20 04:11:27;;;;;;;70.62;36.30;;;;;;;-1.83;63.93;98769.55;1748113;81;21019;-50
2022/11/20 04:13:59;;;;;;;77.30;36.30;;;;;;;-1.82;63.90;98764.78;1748131;81;20984;-52
2022/11/20 04:16:32;;;;;;;68.57;35.70;;;;;;;-1.83;63.90;98766.97;1747186;81;21536;-47
2022/11/20 04:19:01;;;;;;;75.87;36.28;;;;;;;-1.83;63.84;98763.10;1748112;81;21459;-54
2022/11/20 04:21:28;;;;;;;68.87;34.65;;;;;;;-1.89;64.04;98762.75;1748055;82;21004;-49
2022/11/20 04:23:55;;;;;;;73.42;36.15;;;;;;;-1.94;64.18;98760.22;1748215;81;21560;-47
2022/11/20 04:26:24;;;;;;;70.65;35.92;;;;;;;-2.00;64.32;98756.45;1748209;81;21031;-51
2022/11/20 04:28:50;;;;;;;71.85;36.65;;;;;;;-1.97;64.50;98750.39;1748099;81;21449;-45
2022/11/20 04:31:20;;;;;;;71.45;36.65;;;;;;;-1.96;64.30;98750.81;1748069;81;20995;-48
2022/11/20 04:33:47;;;;;;;70.12;36.23;;;;;;;-1.96;64.04;98752.95;1746889;81;21031;-47
2022/11/20 04:36:17;;;;;;;74.97;37.23;;;;;;;-1.99;64.43;98750.84;1748049;81;21031;-50
2022/11/20 04:38:43;;;;;;;78.20;36.75;;;;;;;-1.97;64.39;98749.94;1748161;81;20983;-51
2022/11/20 04:41:17;;;;;;;76.10;35.77;;;;;;;-2.01;64.72;98747.45;1748277;82;21483;-52
2022/11/20 04:43:58;;;;;;;66.60;35.08;;;;;;;-2.02;64.53;98745.31;1759281;81;21497;-42
2022/11/20 04:46:23;;;;;;;74.90;37.23;;;;;;;-2.05;64.30;98753.52;1761113;81;21014;-51
2022/11/20 04:48:48;;;;;;;63.75;34.05;;;;;;;-2.11;64.75;98751.87;1761409;81;20975;-48
2022/11/20 04:51:14;;;;;;;76.45;34.88;;;;;;;-2.13;64.72;98744.58;1761430;81;21020;-46
2022/11/20 04:53:41;;;;;;;65.35;33.88;;;;;;;-2.14;64.83;98740.31;1761284;81;21638;-51
2022/11/20 04:56:10;;;;;;;70.05;34.90;;;;;;;-2.11;64.79;98740.28;1761355;81;20971;-43
2022/11/20 04:58:36;;;;;;;70.25;36.50;;;;;;;-2.12;64.76;98744.56;1761376;81;20967;-51
2022/11/20 05:01:15;;;;;;;75.55;36.35;;;;;;;-2.16;64.94;98741.62;1761322;81;20998;-45
2022/11/20 05:03:42;;;;;;;74.85;35.48;;;;;;;-2.16;64.94;98735.63;1761242;81;20992;-44
2022/11/20 05:06:10;;;;;;;72.92;35.35;;;;;;;-2.17;65.06;98736.48;1761412;81;21019;-54
2022/11/20 05:08:36;;;;;;;74.17;35.00;;;;;;;-2.16;65.23;98739.48;1761413;81;21050;-56
2022/11/20 05:11:07;;;;;;;72.17;36.55;;;;;;;-2.15;65.00;98741.17;1761368;81;20968;-44
2022/11/20 05:13:33;;;;;;;68.37;35.38;;;;;;;-2.14;65.17;98742.89;1761211;81;20988;-53
2022/11/20 05:16:11;;;;;;;71.20;35.73;;;;;;;-2.18;65.21;98740.78;1761179;81;21698;-51
2022/11/20 05:18:37;;;;;;;72.97;35.40;;;;;;;-2.20;65.57;98740.38;1761337;81;21030;-45
2022/11/20 05:21:04;;;;;;;69.17;33.70;;;;;;;-2.22;65.97;98744.28;1761660;81;21468;-48
2022/11/20 05:23:31;;;;;;;79.83;36.13;;;;;;;-2.37;66.99;98747.03;1761585;81;21535;-50
2022/11/20 05:25:58;;;;;;;70.62;35.10;;;;;;;-2.33;66.95;98746.11;1761501;81;20956;-49
2022/11/20 05:28:24;;;;;;;87.88;37.00;;;;;;;-2.30;66.83;98747.81;1761618;81;21026;-45
2022/11/20 05:30:51;;;;;;;79.27;37.23;;;;;;;-2.34;67.25;98755.57;1761692;81;21453;-52
2022/11/20 05:33:17;;;;;;;70.75;34.83;;;;;;;-2.36;67.27;98753.45;1761536;81;21010;-49
2022/11/20 05:35:43;;;;;;;70.27;37.17;;;;;;;-2.43;67.34;98750.53;1761611;81;21026;-49
2022/11/20 05:38:10;;;;;;;74.10;35.03;;;;;;;-2.49;67.25;98743.30;1761364;81;20995;-44
2022/11/20 05:40:36;;;;;;;69.58;35.95;;;;;;;-2.56;67.71;98739.52;1761416;81;20999;-44
2022/11/20 05:43:01;;;;;;;75.75;35.58;;;;;;;-2.56;67.59;98737.39;1761317;81;21543;-48
2022/11/20 05:45:28;;;;;;;73.87;36.83;;;;;;;-2.71;68.71;98743.13;1761334;80;20999;-43
2022/11/20 05:47:55;;;;;;;77.70;38.38;;;;;;;-2.70;68.45;98746.53;1761324;80;20956;-52
2022/11/20 05:50:21;;;;;;;75.75;37.48;;;;;;;-2.83;69.06;98735.96;1761045;81;20991;-52
2022/11/20 05:52:47;;;;;;;70.67;35.45;;;;;;;-2.76;68.99;98741.02;1761425;81;21519;-52
2022/11/20 05:55:13;;;;;;;75.57;36.48;;;;;;;-2.77;68.84;98742.31;1761448;81;21489;-48
2022/11/20 05:57:39;;;;;;;70.78;34.70;;;;;;;-2.82;69.15;98737.23;1761363;81;20995;-49
2022/11/20 06:00:06;;;;;;;81.65;37.23;;;;;;;-2.89;69.66;98739.45;1761326;81;21043;-49
2022/11/20 06:02:35;;;;;;;71.25;35.88;;;;;;;-2.90;69.67;98736.00;1761396;81;21026;-56
2022/11/20 06:05:02;;;;;;;77.78;38.00;;;;;;;-2.88;69.81;98736.44;1760305;81;20979;-48
2022/11/20 06:07:27;;;;;;;65.87;33.70;;;;;;;-2.93;69.73;98736.05;1761312;81;20964;-49
2022/11/20 06:09:53;;;;;;;73.52;36.13;;;;;;;-3.10;70.37;98727.19;1761373;81;21500;-50
2022/11/20 06:12:19;;;;;;;74.12;37.42;;;;;;;-3.22;71.14;98730.31;1761375;81;21449;-49
2022/11/20 06:14:45;;;;;;;74.90;36.95;;;;;;;-3.24;71.02;98729.03;1761313;81;21504;-49
2022/11/20 06:17:10;;;;;;;79.77;38.20;;;;;;;-3.27;71.12;98730.37;1761385;81;20979;-53
2022/11/20 06:19:36;;;;;;;83.75;38.73;;;;;;;-3.31;71.59;98732.52;1761389;81;21443;-50
2022/11/20 06:22:02;;;;;;;84.75;40.43;;;;;;;-3.34;71.66;98730.00;1761290;81;21015;-44
2022/11/20 06:24:28;;;;;;;72.53;38.38;;;;;;;-3.31;71.99;98734.69;1761322;81;20991;-47
2022/11/20 06:26:54;;;;;;;80.92;39.08;;;;;;;-3.29;71.64;98734.23;1761341;80;20991;-39
2022/11/20 06:29:19;;;;;;;77.15;38.85;;;;;;;-3.35;72.08;98739.84;1761423;81;21034;-40
2022/11/20 06:31:45;;;;;;;76.42;38.25;;;;;;;-3.36;72.02;98736.88;1761341;81;20990;-51
2022/11/20 06:34:11;;;;;;;80.80;39.73;;;;;;;-3.39;72.28;98733.88;1761355;81;21026;-55
2022/11/20 06:36:36;;;;;;;82.12;39.92;;;;;;;-3.31;72.34;98732.52;1761429;81;20990;-46
2022/11/20 06:39:03;;;;;;;84.10;40.80;;;;;;;-3.26;72.12;98730.77;1761382;81;21476;-49
2022/11/20 06:41:29;;;;;;;81.28;39.88;;;;;;;-3.28;72.00;98735.08;1761293;81;20959;-54
2022/11/20 06:43:55;;;;;;;78.92;39.30;;;;;;;-3.22;72.12;98735.04;1751582;80;21512;-47
2022/11/20 06:46:21;;;;;;;89.45;41.98;;;;;;;-3.13;71.82;98730.22;1748088;81;21484;-49
2022/11/20 06:48:48;;;;;;;81.90;39.48;;;;;;;-3.17;72.04;98729.40;1748000;81;20976;-50
2022/11/20 06:51:14;;;;;;;81.72;38.25;;;;;;;-3.05;71.52;98729.73;1748125;81;20979;-43
2022/11/20 06:53:39;;;;;;;79.00;39.78;;;;;;;-3.11;71.86;98733.22;1748026;82;20953;-42
2022/11/20 06:56:07;;;;;;;77.03;39.58;;;;;;;-3.12;71.94;98730.22;1748059;81;21460;-47
2022/11/20 06:58:35;;;;;;;86.92;41.98;;;;;;;-3.05;71.83;98731.02;1748015;81;20995;-50
2022/11/20 07:01:05;;;;;;;82.00;40.63;;;;;;;-3.04;71.77;98731.86;1747971;81;21492;-46
2022/11/20 07:03:31;;;;;;;90.65;43.23;;;;;;;-3.07;72.07;98723.76;1747942;81;21031;-53
2022/11/20 07:05:58;;;;;;;82.55;39.88;;;;;;;-3.04;71.81;98723.70;1747990;82;21019;-52
2022/11/20 07:08:24;;;;;;;79.15;40.05;;;;;;;-3.03;72.10;98716.42;1748091;82;21548;-47
2022/11/20 07:10:50;;;;;;;83.82;39.98;;;;;;;-2.96;71.89;98716.78;1748304;81;20995;-42
2022/11/20 07:13:16;;;;;;;82.40;42.62;;;;;;;-3.00;71.87;98716.81;1747924;81;20968;-55
2022/11/20 07:15:42;;;;;;;95.32;41.85;;;;;;;-2.97;71.74;98707.78;1747947;81;21022;-51
2022/11/20 07:18:08;;;;;;;82.65;38.75;;;;;;;-2.93;71.77;98702.61;1748028;81;21453;-52
2022/11/20 07:20:34;;;;;;;78.60;38.98;;;;;;;-2.87;71.20;98696.95;1748055;81;21575;-52
2022/11/20 07:23:00;;;;;;;82.30;41.37;;;;;;;-2.85;71.17;98703.81;1747905;81;20991;-47
2022/11/20 07:25:28;;;;;;;83.62;40.83;;;;;;;-2.86;71.09;98702.53;1748089;81;21023;-52
2022/11/20 07:27:58;;;;;;;;;;;;;;;-2.73;71.05;98708.83;1750714;82;21016;-52
2022/11/20 07:30:24;;;;;;;78.10;39.42;;;;;;;-2.64;71.01;98714.73;1748350;81;20108;-51
2022/11/20 07:32:55;;;;;;;70.35;37.20;;;;;;;-2.51;70.59;98712.41;1748165;81;21492;-45
2022/11/20 07:35:21;;;;;;;79.80;39.83;;;;;;;-2.44;70.17;98708.90;1748085;81;21472;-46
2022/11/20 07:37:48;;;;;;;82.20;39.23;;;;;;;-2.40;70.10;98704.16;1748347;82;20984;-47
2022/11/20 07:40:17;;;;;;;76.67;39.00;;;;;;;-2.29;69.84;98704.44;1748264;81;20983;-54
2022/11/20 07:42:54;;;;;;;76.07;40.20;;;;;;;-2.26;69.52;98700.09;1747203;81;21027;-46
2022/11/20 07:45:23;;;;;;;83.47;40.58;;;;;;;-2.21;69.16;98693.61;1748101;81;21035;-46
2022/11/20 07:47:49;;;;;;;84.28;42.50;;;;;;;-2.10;68.95;98703.77;1748095;81;21434;-44
2022/11/20 07:50:16;;;;;;;81.08;40.83;;;;;;;-2.02;68.74;98698.94;1748196;81;20992;-46
2022/11/20 07:52:42;;;;;;;84.07;42.35;;;;;;;-1.95;68.29;98700.55;1748345;81;21468;-55
2022/11/20 07:55:09;;;;;;;88.47;41.20;;;;;;;-1.88;67.89;98697.87;1748181;81;20968;-51
2022/11/20 07:57:35;;;;;;;;;;;;;;;-1.78;68.00;98699.45;1750706;81;21000;-51
2022/11/20 08:00:02;;;;;;;81.32;40.98;;;;;;;-1.85;67.19;98694.81;1748074;82;20105;-52
2022/11/20 08:02:28;;;;;;;80.32;41.02;;;;;;;-1.76;67.40;98689.52;1748248;82;21032;-41
2022/11/20 08:04:53;;;;;;;77.47;38.53;;;;;;;-1.69;67.36;98690.70;1748119;81;21044;-47
2022/11/20 08:07:19;;;;;;;85.80;40.88;;;;;;;-1.66;66.91;98684.22;1748014;81;20995;-43
2022/11/20 08:09:45;;;;;;;77.55;40.58;;;;;;;-1.65;66.92;98686.78;1748080;81;21031;-46
2022/11/20 08:15:06;;;;;;;77.70;38.17;;;;;;;-1.49;66.64;98678.78;1747678;82;21521;-43
2022/11/20 08:17:32;;;;;;;76.90;38.70;;;;;;;-1.47;66.24;98676.61;1748110;82;20983;-51
2022/11/20 08:19:58;;;;;;;76.10;38.25;;;;;;;-1.46;66.32;98665.85;1748025;81;21035;-50
2022/11/20 08:22:24;;;;;;;103.32;46.80;;;;;;;-1.44;65.89;98661.52;1748013;82;21031;-52
2022/11/20 08:24:50;;;;;;;78.90;39.42;;;;;;;-1.44;65.89;98661.52;1748081;81;20949;-46
2022/11/20 08:27:16;;;;;;;69.72;35.05;;;;;;;-1.33;65.97;98664.75;1748060;81;20968;-46
2022/11/20 08:29:42;;;;;;;71.20;35.70;;;;;;;-1.32;65.63;98665.63;1748024;82;20980;-44
2022/11/20 08:32:07;;;;;;;72.00;37.05;;;;;;;-1.33;65.14;98662.63;1748024;81;21031;-48
2022/11/20 08:34:33;;;;;;;72.47;37.70;;;;;;;-1.28;65.24;98656.95;1748093;81;21489;-46
2022/11/20 08:36:59;;;;;;;76.75;38.02;;;;;;;-0.57;64.49;98665.94;1748214;81;21512;-40
2022/11/20 08:39:25;;;;;;;71.67;36.58;;;;;;;-0.57;64.49;98665.94;1748089;81;21446;-42
2022/11/20 08:41:50;;;;;;;72.47;35.90;;;;;;;-0.32;62.64;98659.37;1748065;81;21576;-47
2022/11/20 08:44:16;;;;;;;62.35;32.85;;;;;;;-0.11;62.80;98658.08;1756468;80;21521;-50
2022/11/20 08:46:43;;;;;;;70.37;38.38;;;;;;;0.01;60.77;98663.39;1761402;81;21528;-49
2022/11/20 08:49:11;;;;;;;72.95;39.08;;;;;;;0.19;60.98;98653.08;1761544;80;20984;-43
2022/11/20 08:51:38;;;;;;;77.30;38.98;;;;;;;0.35;60.20;98658.29;1761392;81;21007;-46
2022/11/20 08:54:05;;;;;;;78.62;38.05;;;;;;;0.41;59.25;98655.16;1761540;81;20995;-49
2022/11/20 08:56:32;;;;;;;72.20;35.17;;;;;;;0.49;59.90;98655.38;1761645;81;21022;-49
2022/11/20 08:58:59;;;;;;;73.72;36.93;;;;;;;0.36;60.07;98653.53;1761369;81;20995;-45
2022/11/20 09:01:25;;;;;;;;;;;;;;;0.32;59.76;98651.89;1764126;81;21128;-46
2022/11/20 09:03:51;;;;;;;56.83;30.05;;;;;;;0.22;59.04;98646.55;1761372;81;20425;-45
2022/11/20 09:06:18;;;;;;;56.05;28.35;;;;;;;0.31;60.02;98648.91;1761354;81;21513;-45
2022/11/20 09:08:44;;;;;;;63.17;29.05;;;;;;;0.16;58.52;98641.08;1761356;81;21027;-47
2022/11/20 09:11:10;;;;;;;57.33;27.93;;;;;;;0.20;59.31;98648.33;1761349;81;20994;-50
2022/11/20 09:13:36;;;;;;;71.45;35.58;;;;;;;0.16;59.19;98642.80;1761360;81;21047;-52
2022/11/20 09:16:07;;;;;;;57.67;29.20;;;;;;;0.13;59.47;98633.39;1761548;81;20990;-48
2022/11/20 09:18:37;;;;;;;56.55;28.15;;;;;;;0.14;59.27;98635.07;1761452;80;21008;-52
2022/11/20 09:21:06;;;;;;;53.52;29.07;;;;;;;0.16;59.63;98635.03;1761282;81;21018;-51
2022/11/20 09:23:35;;;;;;;55.23;29.82;;;;;;;0.11;59.27;98631.28;1761316;81;21030;-50
2022/11/20 09:26:11;;;;;;;53.58;27.15;;;;;;;0.11;59.39;98629.99;1761355;81;20968;-43
2022/11/20 09:28:37;;;;;;;55.70;27.17;;;;;;;0.11;58.60;98630.41;1761295;80;21425;-53
2022/11/20 09:31:16;;;;;;;48.00;26.23;;;;;;;0.10;57.45;98632.61;1761358;81;20983;-47
2022/11/20 09:33:42;;;;;;;54.20;26.35;;;;;;;0.11;58.26;98632.58;1754483;81;20994;-48
2022/11/20 09:36:08;;;;;;;54.05;28.65;;;;;;;0.11;58.72;98626.11;1761518;81;21476;-48
2022/11/20 09:38:34;;;;;;;53.52;26.15;;;;;;;0.13;58.97;98626.92;1761345;81;21027;-52
2022/11/20 09:41:06;;;;;;;43.75;24.57;;;;;;;0.22;58.79;98630.16;1761421;81;21034;-45
2022/11/20 09:44:06;;;;;;;47.93;24.20;;;;;;;0.29;58.31;98631.30;1758434;80;21584;-43
2022/11/20 09:46:52;;;;;;;49.55;25.12;;;;;;;0.36;57.32;98626.80;1748021;82;21003;-55
2022/11/20 09:49:44;;;;;;;46.35;24.00;;;;;;;0.41;57.55;98624.11;1747966;81;21442;-48
2022/11/20 09:52:33;;;;;;;51.18;24.55;;;;;;;0.36;56.08;98622.92;1747985;81;21496;-49
2022/11/20 09:55:02;;;;;;;51.48;27.20;;;;;;;0.37;57.53;98611.25;1747646;81;21004;-46
2022/11/20 09:57:35;;;;;;;47.95;24.77;;;;;;;0.44;57.35;98608.49;1748016;81;21040;-49
2022/11/20 10:00:05;;;;;;;48.38;24.07;;;;;;;0.50;57.06;98610.95;1747705;81;21477;-50
2022/11/20 10:02:54;;;;;;;43.65;24.37;;;;;;;0.50;55.99;98605.77;1747974;82;20972;-47
2022/11/20 10:05:37;;;;;;;45.40;23.25;;;;;;;0.60;57.08;98604.66;1747955;81;20987;-50
2022/11/20 10:08:17;;;;;;;45.70;24.30;;;;;;;0.70;56.01;98600.08;1746730;81;21449;-46
2022/11/20 10:11:03;;;;;;;47.55;24.43;;;;;;;0.79;56.39;98597.70;1748222;81;20964;-51
2022/11/20 10:13:47;;;;;;;45.20;25.77;;;;;;;0.81;55.65;98598.05;1748057;81;20989;-44
2022/11/20 10:16:30;;;;;;;44.98;22.75;;;;;;;0.89;55.48;98597.83;1748007;81;20996;-46
2022/11/20 10:19:31;;;;;;;46.20;23.12;;;;;;;0.96;55.19;98596.78;1747823;82;21027;-48
2022/11/20 10:22:42;;;;;;;56.18;22.85;;;;;;;1.03;54.55;98594.42;1748015;81;21031;-48
2022/11/20 10:25:24;;;;;;;43.98;23.98;;;;;;;1.07;55.12;98602.50;1747989;81;21492;-47
2022/11/20 10:27:58;;;;;;;43.30;22.90;;;;;;;1.11;54.17;98600.25;1747987;82;21464;-52
2022/11/20 10:30:25;;;;;;;45.88;23.98;;;;;;;1.11;53.81;98596.38;1747791;81;20983;-49
2022/11/20 10:33:02;;;;;;;47.65;24.05;;;;;;;1.18;53.97;98594.44;1748083;81;21002;-52
2022/11/20 10:35:34;;;;;;;;;;;;;;;1.21;53.80;98596.11;1750317;81;21615;-50
2022/11/20 10:38:03;;;;;;;76.17;34.00;;;;;;;1.19;52.28;98592.72;1744992;82;20100;-52
2022/11/20 10:40:39;;;;;;;54.48;25.90;;;;;;;1.23;52.31;98593.02;1747979;81;20992;-48
2022/11/20 10:43:25;;;;;;;49.55;24.45;;;;;;;1.31;52.83;98591.91;1748068;82;20992;-47
2022/11/20 10:46:05;;;;;;;40.55;21.30;;;;;;;1.35;53.25;98591.37;1747984;81;21030;-51
2022/11/20 10:48:32;;;;;;;48.60;23.02;;;;;;;1.41;52.77;98596.38;1747208;82;20994;-44
2022/11/20 10:51:39;;;;;;;42.78;22.27;;;;;;;1.48;52.75;98587.52;1748103;81;21030;-47
2022/11/20 10:54:35;;;;;;;43.45;21.90;;;;;;;1.51;52.93;98584.85;1747962;82;21470;-46
2022/11/20 10:57:09;;;;;;;45.85;21.95;;;;;;;1.55;52.73;98573.95;1709064;83;21014;-49
2022/11/20 10:59:57;;;;;;;45.45;23.90;;;;;;;1.53;50.73;98582.22;1708829;84;21001;-46
2022/11/20 11:02:26;;;;;;;47.00;23.32;;;;;;;1.56;50.87;98567.02;1708487;84;21041;-47
2022/11/20 11:04:54;;;;;;;51.53;23.67;;;;;;;1.58;50.50;98574.29;1708290;84;21408;-43
2022/11/20 11:07:26;;;;;;;;;;;;;;;1.61;52.02;98570.31;1711931;84;21668;-46
2022/11/20 11:09:56;;;;;;;44.70;21.55;;;;;;;1.64;50.48;98571.53;1709269;84;20105;-42
2022/11/20 11:12:25;;;;;;;47.70;23.73;;;;;;;1.69;51.80;98570.91;1685512;84;21052;-46
2022/11/20 11:14:57;;;;;;;52.45;24.50;;;;;;;1.69;51.12;98568.32;1709107;83;20969;-47
2022/11/20 11:17:30;;;;;;;41.23;21.57;;;;;;;1.76;51.21;98561.22;1709202;83;21554;-50
2022/11/20 11:20:05;;;;;;;38.40;21.50;;;;;;;1.76;51.77;98564.64;1709554;84;21017;-50
2022/11/20 11:22:34;;;;;;;42.95;23.80;;;;;;;1.78;51.71;98558.96;1709132;84;21001;-47
2022/11/20 11:25:00;;;;;;;47.73;24.37;;;;;;;1.71;51.10;98559.63;1709281;84;20989;-45
2022/11/20 11:27:26;;;;;;;43.68;23.90;;;;;;;1.75;50.92;98559.08;1709186;84;21013;-52
2022/11/20 11:30:12;;;;;;;68.60;35.48;;;;;;;1.78;51.07;98553.78;1685385;84;21048;-51
2022/11/20 11:32:38;;;;;;;53.33;27.57;;;;;;;1.76;50.89;98552.98;1709548;84;21613;-43
2022/11/20 11:35:09;;;;;;;50.20;25.90;;;;;;;1.84;51.17;98547.58;1743612;82;20953;-52
2022/11/20 11:37:39;;;;;;;41.83;24.27;;;;;;;1.90;51.91;98548.20;1745911;81;20953;-51
2022/11/20 11:40:10;;;;;;;46.20;25.40;;;;;;;1.92;50.87;98541.23;1748081;81;20964;-54